createdAt,value
2019-02-02T00:00:25.494Z,15.23
2019-02-02T00:03:26.994Z,14.83
2019-02-02T00:09:12.891Z,15.27
2019-02-02T00:14:58.467Z,15.33
2019-02-02T00:20:43.970Z,15.30
2019-02-02T00:23:45.605Z,15.60
2019-02-02T00:29:30.427Z,16.30
2019-02-02T00:32:32.839Z,16.53
2019-02-02T00:35:34.547Z,16.17
2019-02-02T00:41:20.344Z,15.40
2019-02-02T00:44:21.642Z,15.63
2019-02-02T00:50:02.259Z,15.13
2019-02-02T00:55:47.943Z,15.97
2019-02-02T01:01:34.578Z,21.10
2019-02-02T01:07:20.556Z,16.67
2019-02-02T01:10:21.100Z,15.97
2019-02-02T01:13:22.474Z,15.33
2019-02-02T01:16:23.078Z,16.27
2019-02-02T01:22:09.275Z,16.07
2019-02-02T01:28:04.840Z,16.27
2019-02-02T01:30:57.927Z,14.93
2019-02-02T01:36:43.502Z,14.40
2019-02-02T01:39:44.668Z,15.87
2019-02-02T01:42:45.675Z,16.60
2019-02-02T01:48:30.548Z,16.23
2019-02-02T01:51:32.124Z,15.47
2019-02-02T01:57:17.869Z,15.00
2019-02-02T02:03:03.517Z,16.10
2019-02-02T02:08:49.250Z,15.63
2019-02-02T02:11:50.480Z,16.03
2019-02-02T02:17:56.903Z,15.97
2019-02-02T02:23:41.851Z,16.03
2019-02-02T02:26:43.174Z,15.53
2019-02-02T02:32:28.623Z,16.23
2019-02-02T02:38:13.122Z,16.60
2019-02-02T02:43:57.954Z,17.23
2019-02-02T02:46:59.160Z,15.33
2019-02-02T02:52:45.182Z,16.40
2019-02-02T02:58:40.972Z,15.70
2019-02-02T03:04:17.267Z,16.43
2019-02-02T03:07:19.563Z,15.97
2019-02-02T03:10:20.918Z,16.27
2019-02-02T03:13:21.522Z,15.57
2019-02-02T03:16:22.032Z,16.23
2019-02-02T03:19:22.519Z,15.80
2019-02-02T03:25:07.630Z,16.13
2019-02-02T03:28:08.498Z,16.43
2019-02-02T03:33:55.036Z,16.07
2019-02-02T03:36:56.179Z,17.00
2019-02-02T03:39:56.875Z,16.70
2019-02-02T03:42:57.380Z,22.10
2019-02-02T03:48:42.834Z,18.47
2019-02-02T03:54:28.457Z,16.53
2019-02-02T04:00:12.905Z,16.53
2019-02-02T04:05:58.357Z,15.43
2019-02-02T04:08:59.051Z,16.07
2019-02-02T04:14:45.048Z,16.10
2019-02-02T04:20:30.555Z,16.37
2019-02-02T04:26:17.184Z,16.17
2019-02-02T04:29:23.579Z,16.30
2019-02-02T04:35:08.663Z,16.53
2019-02-02T04:40:54.459Z,16.67
2019-02-02T04:49:46.206Z,16.13
2019-02-02T04:55:32.817Z,16.33
2019-02-02T05:01:18.817Z,17.30
2019-02-02T05:07:05.397Z,16.80
2019-02-02T05:10:06.591Z,17.93
2019-02-02T05:15:52.235Z,23.05
2019-02-02T05:21:38.834Z,17.27
2019-02-02T05:27:23.940Z,17.50
2019-02-02T05:30:23.555Z,16.53
2019-02-02T05:36:14.160Z,16.70
2019-02-02T05:41:59.769Z,16.33
2019-02-02T05:47:45.381Z,17.33
2019-02-02T05:50:46.703Z,18.10
2019-02-02T05:56:32.387Z,15.87
2019-02-02T06:02:18.155Z,16.47
2019-02-02T06:08:04.010Z,17.27
2019-02-02T06:11:05.465Z,16.67
2019-02-02T06:16:51.243Z,17.37
2019-02-02T06:22:36.818Z,17.80
2019-02-02T06:28:22.864Z,15.90
2019-02-02T06:31:24.275Z,17.43
2019-02-02T06:37:09.990Z,18.37
2019-02-02T06:42:56.491Z,17.77
2019-02-02T06:48:41.937Z,49.20
2019-02-02T06:51:43.090Z,102.27
2019-02-02T06:57:27.646Z,20.87
2019-02-02T07:03:18.906Z,19.67
2019-02-02T07:09:05.232Z,17.50
2019-02-02T07:12:06.718Z,17.77
2019-02-02T07:15:08.215Z,17.50
2019-02-02T07:18:09.207Z,17.93
2019-02-02T07:23:54.403Z,18.63
2019-02-02T07:29:39.975Z,17.97
2019-02-02T07:32:40.527Z,17.20
2019-02-02T07:38:26.100Z,17.40
2019-02-02T07:44:06.937Z,19.17
2019-02-02T07:49:51.746Z,17.23
2019-02-02T07:52:52.260Z,16.80
2019-02-02T07:58:38.115Z,19.07
2019-02-02T08:04:23.794Z,17.63
2019-02-02T08:07:26.319Z,17.93
2019-02-02T08:10:27.190Z,17.93
2019-02-02T08:13:27.719Z,18.20
2019-02-02T08:19:13.283Z,17.80
2019-02-02T08:24:59.099Z,19.43
2019-02-02T08:30:52.007Z,18.70
2019-02-02T08:33:47.458Z,18.90
2019-02-02T08:39:33.114Z,19.40
2019-02-02T08:45:18.520Z,18.80
2019-02-02T08:51:03.096Z,19.70
2019-02-02T08:54:04.443Z,19.50
2019-02-02T08:59:50.052Z,19.73
2019-02-02T09:05:34.688Z,20.47
2019-02-02T09:11:21.260Z,19.67
2019-02-02T09:14:22.538Z,20.40
2019-02-02T09:20:07.976Z,20.00
2019-02-02T09:25:52.814Z,19.83
2019-02-02T09:31:38.391Z,21.20
2019-02-02T09:37:23.119Z,21.43
2019-02-02T09:40:25.685Z,20.73
2019-02-02T09:46:11.218Z,20.00
2019-02-02T09:51:56.914Z,20.30
2019-02-02T09:57:42.791Z,21.10
2019-02-02T10:00:43.410Z,21.10
2019-02-02T10:06:28.624Z,20.50
2019-02-02T10:12:13.628Z,19.87
2019-02-02T10:15:15.134Z,19.07
2019-02-02T10:18:16.095Z,20.70
2019-02-02T10:21:17.499Z,21.03
2019-02-02T10:27:03.254Z,20.73
2019-02-02T10:32:48.919Z,20.67
2019-02-02T10:38:34.394Z,21.17
2019-02-02T10:41:35.663Z,20.67
2019-02-02T10:47:21.211Z,20.70
2019-02-02T10:53:07.591Z,21.57
2019-02-02T10:58:53.742Z,20.07
2019-02-02T11:01:55.238Z,22.33
2019-02-02T11:07:41.202Z,21.07
2019-02-02T11:13:26.649Z,22.30
2019-02-02T11:19:13.117Z,22.33
2019-02-02T11:22:14.716Z,22.17
2019-02-02T11:28:01.589Z,21.40
2019-02-02T11:33:46.979Z,22.17
2019-02-02T11:39:32.879Z,22.77
2019-02-02T11:42:33.979Z,24.70
2019-02-02T11:48:19.692Z,24.33
2019-02-02T11:54:04.947Z,24.70
2019-02-02T11:59:50.255Z,24.20
2019-02-02T12:02:51.689Z,25.10
2019-02-02T12:08:37.182Z,23.63
2019-02-02T12:14:23.594Z,24.60
2019-02-02T12:20:09.317Z,23.23
2019-02-02T12:23:10.590Z,24.70
2019-02-02T12:28:50.644Z,25.60
2019-02-02T12:34:35.638Z,24.17
2019-02-02T12:40:20.483Z,26.27
2019-02-02T12:46:25.489Z,26.80
2019-02-02T12:49:26.206Z,30.27
2019-02-02T12:55:17.577Z,25.30
2019-02-02T13:04:14.903Z,25.57
2019-02-02T13:10:00.591Z,26.50
2019-02-02T13:15:46.999Z,28.13
2019-02-02T13:18:50.754Z,26.13
2019-02-02T13:24:36.784Z,26.93
2019-02-02T13:30:21.439Z,26.53
2019-02-02T13:36:08.053Z,26.53
2019-02-02T13:41:52.819Z,25.50
2019-02-02T13:44:54.014Z,27.37
2019-02-02T13:47:55.250Z,26.63
2019-02-02T13:50:56.130Z,26.13
2019-02-02T13:56:40.987Z,27.33
2019-02-02T13:59:42.336Z,26.80
2019-02-02T14:02:45.932Z,28.33
2019-02-02T14:05:46.309Z,25.90
2019-02-02T14:11:26.951Z,27.57
2019-02-02T14:17:11.887Z,27.90
2019-02-02T14:22:56.682Z,29.80
2019-02-02T14:25:57.347Z,28.30
2019-02-02T14:31:42.302Z,28.73
2019-02-02T14:34:43.470Z,29.20
2019-02-02T14:37:44.495Z,28.27
2019-02-02T14:43:30.734Z,27.83
2019-02-02T14:46:31.943Z,28.53
2019-02-02T14:52:17.530Z,28.97
2019-02-02T14:57:58.050Z,28.87
2019-02-02T15:06:50.094Z,27.57
2019-02-02T15:12:37.027Z,30.27
2019-02-02T15:18:22.297Z,30.73
2019-02-02T15:24:08.335Z,28.20
2019-02-02T15:29:54.688Z,30.13
2019-02-02T15:32:55.996Z,29.60
2019-02-02T15:36:03.282Z,29.30
2019-02-02T15:39:04.646Z,30.93
2019-02-02T15:44:49.479Z,31.83
2019-02-02T15:50:35.627Z,31.70
2019-02-02T15:53:36.889Z,30.60
2019-02-02T15:59:22.616Z,32.13
2019-02-02T16:05:07.560Z,32.50
2019-02-02T16:10:52.208Z,31.97
2019-02-02T16:16:36.911Z,32.50
2019-02-02T16:22:21.499Z,32.97
2019-02-02T16:25:22.725Z,44.73
2019-02-02T16:31:07.633Z,35.23
2019-02-02T16:36:52.338Z,31.07
2019-02-02T16:42:57.186Z,31.77
2019-02-02T16:49:11.612Z,31.17
2019-02-02T16:58:49.350Z,32.33
2019-02-02T17:01:49.890Z,32.17
2019-02-02T17:07:34.687Z,32.63
2019-02-02T17:13:20.244Z,32.00
2019-02-02T17:16:21.496Z,32.73
2019-02-02T17:22:06.423Z,33.93
2019-02-02T17:27:51.675Z,32.97
2019-02-02T17:30:52.694Z,32.57
2019-02-02T17:33:53.706Z,31.93
2019-02-02T17:36:54.926Z,45.95
2019-02-02T17:42:43.412Z,34.90
2019-02-02T17:48:28.431Z,33.70
2019-02-02T17:54:13.700Z,33.13
2019-02-02T17:57:15.028Z,32.40
2019-02-02T18:00:15.855Z,32.95
2019-02-02T18:03:17.347Z,31.67
2019-02-02T18:09:03.059Z,33.17
2019-02-02T18:14:53.048Z,33.67
2019-02-02T18:21:09.846Z,28.00
2019-02-02T18:24:10.338Z,31.73
2019-02-02T18:29:56.027Z,30.93
2019-02-02T18:34:18.122Z,32.50
2019-02-02T18:37:19.138Z,31.97
2019-02-02T18:40:19.793Z,31.83
2019-02-02T18:46:09.911Z,33.17
2019-02-02T18:49:11.493Z,32.13
2019-02-02T18:55:01.199Z,31.30
2019-02-02T18:58:54.814Z,34.30
2019-02-02T19:04:41.080Z,33.53
2019-02-02T19:10:26.837Z,32.73
2019-02-02T19:16:13.316Z,32.97
2019-02-02T19:19:14.513Z,32.57
2019-02-02T19:24:59.336Z,32.00
2019-02-02T19:30:46.087Z,32.30
2019-02-02T19:36:32.493Z,33.83
2019-02-02T19:39:33.801Z,33.77
2019-02-02T19:45:18.422Z,34.23
2019-02-02T19:48:19.622Z,32.53
2019-02-02T19:51:21.218Z,34.17
2019-02-02T19:57:07.777Z,35.00
2019-02-02T20:00:08.883Z,34.00
2019-02-02T20:05:54.778Z,35.00
2019-02-02T20:11:40.595Z,35.27
2019-02-02T20:17:25.826Z,34.40
2019-02-02T20:20:27.046Z,35.77
2019-02-02T20:26:11.926Z,34.30
2019-02-02T20:31:57.438Z,35.93
2019-02-02T20:37:43.337Z,33.80
2019-02-02T20:43:29.858Z,36.43
2019-02-02T20:46:31.311Z,37.33
2019-02-02T20:52:16.797Z,37.53
2019-02-02T20:58:02.976Z,35.53
2019-02-02T21:03:48.701Z,37.60
2019-02-02T21:06:49.964Z,35.23
2019-02-02T21:12:35.801Z,39.73
2019-02-02T21:18:21.642Z,36.40
2019-02-02T21:24:08.310Z,36.93
2019-02-02T21:27:09.970Z,36.70
2019-02-02T21:32:55.552Z,36.17
2019-02-02T21:38:40.746Z,35.73
2019-02-02T21:44:26.998Z,38.07
2019-02-02T21:47:27.806Z,36.10
2019-02-02T21:53:14.067Z,35.13
2019-02-02T21:58:59.625Z,36.43
2019-02-02T22:04:45.198Z,34.83
2019-02-02T22:07:47.473Z,33.70
2019-02-02T22:13:33.607Z,33.77
2019-02-02T22:19:19.107Z,34.27
2019-02-02T22:25:05.081Z,34.27
2019-02-02T22:28:06.626Z,34.00
2019-02-02T22:33:57.346Z,34.17
2019-02-02T22:39:43.663Z,33.90
2019-02-02T22:45:29.016Z,35.00
2019-02-02T22:48:29.528Z,34.20
2019-02-02T22:54:14.038Z,34.87
2019-02-02T23:00:00.471Z,33.50
2019-02-02T23:03:02.822Z,32.90
2019-02-02T23:08:49.443Z,34.37
2019-02-02T23:14:34.532Z,35.20
2019-02-02T23:20:19.361Z,35.10
2019-02-02T23:26:05.282Z,37.67
2019-02-02T23:32:12.906Z,34.73
2019-02-02T23:35:13.771Z,37.33
2019-02-02T23:40:58.447Z,37.97
2019-02-02T23:43:59.715Z,37.43
2019-02-02T23:49:45.771Z,36.73
2019-02-02T23:55:30.391Z,39.10
